Rotan, Texas
Current Conditions -  °F | °C
As of 1:15 PM on Sunday 21 Dec 2014 (Local Time) from KSWW Reporting Station
Clear Clear  
Wind Chill: 61°   Ceiling: Unl
Heat Index: 61°   Visibility: 10mi
Dew Point: 40°   Wind: 20mph
Humidity: 46%   Direction: 200°SSW
Pressure: 29.86"   Gusts: 26mph
Location:  32.85°N, 100.47°W
Report Text: KSWW 211915Z AUTO 20017G23KT 10SM CLR 16/04 A2986 RMK AO2 T01600043
Loading
Personal Weather Stations






























Interactive Weather Map New forecast layout! Learn more

10-Day Weather Forecast

Advertisements
Track Severe Weather on mobile